sensor_id;sensor_type;location;lat;lon;timestamp;pressure;altitude;pressure_sealevel;temperature;humidity
3254;BME280;1639;42.804;23.342;2023-09-18T00:02:24;72600.03;;;-148.52;100.00
3254;BME280;1639;42.804;23.342;2023-09-18T00:04:50;72593.81;;;-148.52;100.00
3254;BME280;1639;42.804;23.342;2023-09-18T00:07:15;72593.81;;;-148.52;100.00
3254;BME280;1639;42.804;23.342;2023-09-18T00:09:40;72583.47;;;-148.52;100.00
3254;BME280;1639;42.804;23.342;2023-09-18T00:12:06;72583.47;;;-148.52;100.00
3254;BME280;1639;42.804;23.342;2023-09-18T00:14:32;72569.00;;;-148.52;100.00
3254;BME280;1639;42.804;23.342;2023-09-18T00:16:57;72575.22;;;-148.52;100.00
3254;BME280;1639;42.804;23.342;2023-09-18T00:19:23;72573.13;;;-148.52;100.00
3254;BME280;1639;42.804;23.342;2023-09-18T00:21:49;72569.00;;;-148.52;100.00
3254;BME280;1639;42.804;23.342;2023-09-18T00:24:14;72558.66;;;-148.52;100.00
3254;BME280;1639;42.804;23.342;2023-09-18T00:26:40;72558.66;;;-148.52;100.00
3254;BME280;1639;42.804;23.342;2023-09-18T00:29:05;72550.38;;;-148.52;100.00
3254;BME280;1639;42.804;23.342;2023-09-18T00:31:30;72550.38;;;-148.52;100.00
3254;BME280;1639;42.804;23.342;2023-09-18T00:33:56;72564.88;;;-148.52;100.00
3254;BME280;1639;42.804;23.342;2023-09-18T00:36:21;72571.06;;;-148.52;100.00
3254;BME280;1639;42.804;23.342;2023-09-18T00:38:46;72573.13;;;-148.52;100.00
3254;BME280;1639;42.804;23.342;2023-09-18T00:41:12;72579.34;;;-148.52;100.00
3254;BME280;1639;42.804;23.342;2023-09-18T00:43:37;72579.34;;;-148.52;100.00
3254;BME280;1639;42.804;23.342;2023-09-18T00:46:03;72569.00;;;-148.52;100.00
3254;BME280;1639;42.804;23.342;2023-09-18T00:48:29;72573.13;;;-148.52;100.00
3254;BME280;1639;42.804;23.342;2023-09-18T00:50:55;72581.41;;;-148.52;100.00
3254;BME280;1639;42.804;23.342;2023-09-18T00:53:23;72585.53;;;-148.52;100.00
3254;BME280;1639;42.804;23.342;2023-09-18T00:55:55;72589.69;;;-148.52;100.00
3254;BME280;1639;42.804;23.342;2023-09-18T00:58:21;72579.34;;;-148.52;100.00
3254;BME280;1639;42.804;23.342;2023-09-18T01:00:47;72575.22;;;-148.52;100.00
3254;BME280;1639;42.804;23.342;2023-09-18T01:03:15;72583.47;;;-148.52;100.00
3254;BME280;1639;42.804;23.342;2023-09-18T01:05:44;72585.53;;;-148.52;100.00
3254;BME280;1639;42.804;23.342;2023-09-18T01:08:10;72581.41;;;-148.52;100.00
3254;BME280;1639;42.804;23.342;2023-09-18T01:11:06;72573.13;;;-148.52;100.00
3254;BME280;1639;42.804;23.342;2023-09-18T01:13:46;72577.28;;;-148.52;100.00
3254;BME280;1639;42.804;23.342;2023-09-18T01:16:24;72579.34;;;-148.52;100.00
3254;BME280;1639;42.804;23.342;2023-09-18T01:18:52;72585.53;;;-148.52;100.00
3254;BME280;1639;42.804;23.342;2023-09-18T01:21:20;72575.22;;;-148.52;100.00
3254;BME280;1639;42.804;23.342;2023-09-18T01:23:46;72587.63;;;-148.52;100.00
3254;BME280;1639;42.804;23.342;2023-09-18T01:26:12;72597.97;;;-148.52;100.00
3254;BME280;1639;42.804;23.342;2023-09-18T01:28:37;72591.75;;;-148.52;100.00
3254;BME280;1639;42.804;23.342;2023-09-18T01:31:02;72591.75;;;-148.52;100.00
3254;BME280;1639;42.804;23.342;2023-09-18T01:33:29;72604.16;;;-148.52;100.00
3254;BME280;1639;42.804;23.342;2023-09-18T01:35:55;72606.22;;;-148.52;100.00
3254;BME280;1639;42.804;23.342;2023-09-18T01:38:23;72595.88;;;-148.52;100.00
3254;BME280;1639;42.804;23.342;2023-09-18T01:40:49;72606.22;;;-148.52;100.00
3254;BME280;1639;42.804;23.342;2023-09-18T01:43:15;72604.16;;;-148.52;100.00
3254;BME280;1639;42.804;23.342;2023-09-18T01:45:41;72612.44;;;-148.52;100.00
3254;BME280;1639;42.804;23.342;2023-09-18T01:48:07;72620.69;;;-148.52;100.00
3254;BME280;1639;42.804;23.342;2023-09-18T01:50:33;72618.63;;;-148.52;100.00
3254;BME280;1639;42.804;23.342;2023-09-18T01:52:59;72635.19;;;-148.52;100.00
3254;BME280;1639;42.804;23.342;2023-09-18T01:55:24;72633.13;;;-148.52;100.00
3254;BME280;1639;42.804;23.342;2023-09-18T01:57:49;72620.69;;;-148.52;100.00
3254;BME280;1639;42.804;23.342;2023-09-18T02:00:15;72643.44;;;-148.52;100.00
3254;BME280;1639;42.804;23.342;2023-09-18T02:02:41;72653.78;;;-148.52;100.00
3254;BME280;1639;42.804;23.342;2023-09-18T02:05:06;72672.41;;;-148.52;100.00
3254;BME280;1639;42.804;23.342;2023-09-18T02:07:32;72662.06;;;-148.52;100.00
3254;BME280;1639;42.804;23.342;2023-09-18T02:09:57;72670.34;;;-148.52;100.00
3254;BME280;1639;42.804;23.342;2023-09-18T02:12:22;72653.78;;;-148.52;100.00
3254;BME280;1639;42.804;23.342;2023-09-18T02:14:48;72664.13;;;-148.52;100.00
3254;BME280;1639;42.804;23.342;2023-09-18T02:17:13;72657.94;;;-148.52;100.00
3254;BME280;1639;42.804;23.342;2023-09-18T02:19:39;72662.06;;;-148.52;100.00
3254;BME280;1639;42.804;23.342;2023-09-18T02:22:04;72657.94;;;-148.52;100.00
3254;BME280;1639;42.804;23.342;2023-09-18T02:24:30;72655.84;;;-148.52;100.00
3254;BME280;1639;42.804;23.342;2023-09-18T02:26:55;72651.72;;;-148.52;100.00
3254;BME280;1639;42.804;23.342;2023-09-18T02:29:20;72649.66;;;-148.52;100.00
3254;BME280;1639;42.804;23.342;2023-09-18T02:31:46;72651.72;;;-148.52;100.00
3254;BME280;1639;42.804;23.342;2023-09-18T02:34:11;72657.94;;;-148.52;100.00
3254;BME280;1639;42.804;23.342;2023-09-18T02:36:37;72682.75;;;-148.52;100.00
3254;BME280;1639;42.804;23.342;2023-09-18T02:39:02;72670.34;;;-148.52;100.00
3254;BME280;1639;42.804;23.342;2023-09-18T02:41:28;72670.34;;;-148.52;100.00
3254;BME280;1639;42.804;23.342;2023-09-18T02:43:53;72660.00;;;-148.52;100.00
3254;BME280;1639;42.804;23.342;2023-09-18T02:46:18;72653.78;;;-148.52;100.00
3254;BME280;1639;42.804;23.342;2023-09-18T02:48:44;72651.72;;;-148.52;100.00
3254;BME280;1639;42.804;23.342;2023-09-18T02:51:09;72645.53;;;-148.52;100.00
3254;BME280;1639;42.804;23.342;2023-09-18T02:53:35;72653.78;;;-148.52;100.00
3254;BME280;1639;42.804;23.342;2023-09-18T02:56:00;72641.38;;;-148.52;100.00
3254;BME280;1639;42.804;23.342;2023-09-18T02:58:26;72637.25;;;-148.52;100.00
3254;BME280;1639;42.804;23.342;2023-09-18T03:00:55;72635.19;;;-148.52;100.00
3254;BME280;1639;42.804;23.342;2023-09-18T03:03:20;72645.53;;;-148.52;100.00
3254;BME280;1639;42.804;23.342;2023-09-18T03:05:46;72655.84;;;-148.52;100.00
3254;BME280;1639;42.804;23.342;2023-09-18T03:08:13;72649.66;;;-148.52;100.00
3254;BME280;1639;42.804;23.342;2023-09-18T03:10:40;72649.66;;;-148.52;100.00
3254;BME280;1639;42.804;23.342;2023-09-18T03:13:06;72639.31;;;-148.52;100.00
3254;BME280;1639;42.804;23.342;2023-09-18T03:15:32;72635.19;;;-148.52;100.00
3254;BME280;1639;42.804;23.342;2023-09-18T03:17:58;72628.97;;;-148.52;100.00
3254;BME280;1639;42.804;23.342;2023-09-18T03:20:25;72624.84;;;-148.52;100.00
3254;BME280;1639;42.804;23.342;2023-09-18T03:22:51;72620.69;;;-148.52;100.00
3254;BME280;1639;42.804;23.342;2023-09-18T03:25:16;72626.91;;;-148.52;100.00
3254;BME280;1639;42.804;23.342;2023-09-18T03:27:41;72626.91;;;-148.52;100.00
3254;BME280;1639;42.804;23.342;2023-09-18T03:30:07;72620.69;;;-148.52;100.00
3254;BME280;1639;42.804;23.342;2023-09-18T03:32:33;72620.69;;;-148.52;100.00
3254;BME280;1639;42.804;23.342;2023-09-18T03:34:58;72624.84;;;-148.52;100.00
3254;BME280;1639;42.804;23.342;2023-09-18T03:37:23;72633.13;;;-148.52;100.00
3254;BME280;1639;42.804;23.342;2023-09-18T03:39:49;72637.25;;;-148.52;100.00
3254;BME280;1639;42.804;23.342;2023-09-18T03:42:14;72645.53;;;-148.52;100.00
3254;BME280;1639;42.804;23.342;2023-09-18T03:44:40;72647.59;;;-148.52;100.00
3254;BME280;1639;42.804;23.342;2023-09-18T03:47:05;72637.25;;;-148.52;100.00
3254;BME280;1639;42.804;23.342;2023-09-18T03:49:31;72655.84;;;-148.52;100.00
3254;BME280;1639;42.804;23.342;2023-09-18T03:51:56;72651.72;;;-148.52;100.00
3254;BME280;1639;42.804;23.342;2023-09-18T03:54:22;72645.53;;;-148.52;100.00
3254;BME280;1639;42.804;23.342;2023-09-18T03:56:47;72670.34;;;-148.52;100.00
3254;BME280;1639;42.804;23.342;2023-09-18T03:59:13;72682.75;;;-148.52;100.00
3254;BME280;1639;42.804;23.342;2023-09-18T04:01:39;72695.16;;;-148.52;100.00
3254;BME280;1639;42.804;23.342;2023-09-18T04:04:05;72688.94;;;-148.52;100.00
3254;BME280;1639;42.804;23.342;2023-09-18T04:06:41;72715.84;;;-148.52;100.00
3254;BME280;1639;42.804;23.342;2023-09-18T04:09:06;72701.34;;;-148.52;100.00
3254;BME280;1639;42.804;23.342;2023-09-18T04:11:32;72686.88;;;-148.52;100.00
3254;BME280;1639;42.804;23.342;2023-09-18T04:14:01;72684.81;;;-148.52;100.00
3254;BME280;1639;42.804;23.342;2023-09-18T04:16:27;72682.75;;;-148.52;100.00
3254;BME280;1639;42.804;23.342;2023-09-18T04:19:03;72686.88;;;-148.52;100.00
3254;BME280;1639;42.804;23.342;2023-09-18T04:21:29;72711.69;;;-148.52;100.00
3254;BME280;1639;42.804;23.342;2023-09-18T04:23:55;72713.75;;;-148.52;100.00
3254;BME280;1639;42.804;23.342;2023-09-18T04:26:26;72707.56;;;-148.52;100.00
3254;BME280;1639;42.804;23.342;2023-09-18T04:29:01;72709.63;;;-148.52;100.00
3254;BME280;1639;42.804;23.342;2023-09-18T04:31:27;72715.84;;;-148.52;100.00
3254;BME280;1639;42.804;23.342;2023-09-18T04:33:53;72707.56;;;-148.52;100.00
3254;BME280;1639;42.804;23.342;2023-09-18T04:36:19;72695.16;;;-148.52;100.00
3254;BME280;1639;42.804;23.342;2023-09-18T04:38:44;72719.97;;;-148.52;100.00
3254;BME280;1639;42.804;23.342;2023-09-18T04:41:10;72719.97;;;-148.52;100.00
3254;BME280;1639;42.804;23.342;2023-09-18T04:43:40;72701.34;;;-148.52;100.00
3254;BME280;1639;42.804;23.342;2023-09-18T04:46:05;72703.44;;;-148.52;100.00
3254;BME280;1639;42.804;23.342;2023-09-18T04:48:31;72691.00;;;-148.52;100.00
3254;BME280;1639;42.804;23.342;2023-09-18T04:50:58;72699.28;;;-148.52;100.00
3254;BME280;1639;42.804;23.342;2023-09-18T04:53:23;72713.75;;;-148.52;100.00
3254;BME280;1639;42.804;23.342;2023-09-18T04:55:49;72705.50;;;-148.52;100.00
3254;BME280;1639;42.804;23.342;2023-09-18T04:58:16;72703.44;;;-148.52;100.00
3254;BME280;1639;42.804;23.342;2023-09-18T05:00:41;72713.75;;;-148.52;100.00
3254;BME280;1639;42.804;23.342;2023-09-18T05:03:07;72703.44;;;-148.52;100.00
3254;BME280;1639;42.804;23.342;2023-09-18T05:05:34;72697.22;;;-148.52;100.00
3254;BME280;1639;42.804;23.342;2023-09-18T05:08:01;72705.50;;;-148.52;100.00
3254;BME280;1639;42.804;23.342;2023-09-18T05:10:28;72719.97;;;-148.52;100.00
3254;BME280;1639;42.804;23.342;2023-09-18T05:12:54;72717.91;;;-148.52;100.00
3254;BME280;1639;42.804;23.342;2023-09-18T05:15:24;72678.59;;;-148.52;100.00
3254;BME280;1639;42.804;23.342;2023-09-18T05:17:51;72691.00;;;-148.52;100.00
3254;BME280;1639;42.804;23.342;2023-09-18T05:20:19;72682.75;;;-148.52;100.00
3254;BME280;1639;42.804;23.342;2023-09-18T05:22:45;72688.94;;;-148.52;100.00
3254;BME280;1639;42.804;23.342;2023-09-18T05:25:10;72682.75;;;-148.52;100.00
3254;BME280;1639;42.804;23.342;2023-09-18T05:27:37;72686.88;;;-148.52;100.00
3254;BME280;1639;42.804;23.342;2023-09-18T05:30:13;72688.94;;;-148.52;100.00
3254;BME280;1639;42.804;23.342;2023-09-18T05:32:41;72699.28;;;-148.52;100.00
3254;BME280;1639;42.804;23.342;2023-09-18T05:35:07;72693.09;;;-148.52;100.00
3254;BME280;1639;42.804;23.342;2023-09-18T05:37:35;72674.47;;;-148.52;100.00
3254;BME280;1639;42.804;23.342;2023-09-18T05:40:01;72651.72;;;-148.52;100.00
3254;BME280;1639;42.804;23.342;2023-09-18T05:42:26;72647.59;;;-148.52;100.00
3254;BME280;1639;42.804;23.342;2023-09-18T05:44:51;72633.13;;;-148.52;100.00
3254;BME280;1639;42.804;23.342;2023-09-18T05:47:17;72618.63;;;-148.52;100.00
3254;BME280;1639;42.804;23.342;2023-09-18T05:49:42;72616.56;;;-148.52;100.00
3254;BME280;1639;42.804;23.342;2023-09-18T05:52:08;72604.16;;;-148.52;100.00
3254;BME280;1639;42.804;23.342;2023-09-18T05:54:33;72575.22;;;-148.52;100.00
3254;BME280;1639;42.804;23.342;2023-09-18T05:56:58;72552.47;;;-148.52;100.00
3254;BME280;1639;42.804;23.342;2023-09-18T05:59:24;72546.25;;;-148.52;96.46
3254;BME280;1639;42.804;23.342;2023-09-18T06:01:49;72525.56;;;-148.52;95.60
3254;BME280;1639;42.804;23.342;2023-09-18T06:04:15;72517.31;;;-148.52;88.13
3254;BME280;1639;42.804;23.342;2023-09-18T06:06:42;72513.16;;;-148.52;85.78
3254;BME280;1639;42.804;23.342;2023-09-18T06:09:07;72511.09;;;-148.52;86.63
3254;BME280;1639;42.804;23.342;2023-09-18T06:11:32;72480.09;;;-148.52;85.86
3254;BME280;1639;42.804;23.342;2023-09-18T06:13:58;72463.53;;;-148.52;82.27
3254;BME280;1639;42.804;23.342;2023-09-18T06:16:23;72459.41;;;-148.52;81.90
3254;BME280;1639;42.804;23.342;2023-09-18T06:18:49;72473.88;;;-148.52;81.78
3254;BME280;1639;42.804;23.342;2023-09-18T06:21:14;72475.94;;;-148.52;81.55
3254;BME280;1639;42.804;23.342;2023-09-18T06:23:40;72459.41;;;-148.52;81.10
3254;BME280;1639;42.804;23.342;2023-09-18T06:26:05;72471.81;;;-148.52;79.45
3254;BME280;1639;42.804;23.342;2023-09-18T06:28:30;72457.34;;;-148.52;78.93
3254;BME280;1639;42.804;23.342;2023-09-18T06:30:56;72442.84;;;-148.52;80.18
3254;BME280;1639;42.804;23.342;2023-09-18T06:33:22;72434.59;;;-148.52;78.00
3254;BME280;1639;42.804;23.342;2023-09-18T06:35:48;72420.09;;;-148.52;77.71
3254;BME280;1639;42.804;23.342;2023-09-18T06:38:13;72409.78;;;-148.52;76.21
3254;BME280;1639;42.804;23.342;2023-09-18T06:40:40;72399.44;;;-148.52;74.92
3254;BME280;1639;42.804;23.342;2023-09-18T06:43:06;72399.44;;;-148.52;74.24
3254;BME280;1639;42.804;23.342;2023-09-18T06:45:31;72384.97;;;-148.52;73.78
3254;BME280;1639;42.804;23.342;2023-09-18T06:47:58;72389.09;;;-148.52;74.42
3254;BME280;1639;42.804;23.342;2023-09-18T06:50:25;72376.69;;;-148.52;73.21
3254;BME280;1639;42.804;23.342;2023-09-18T06:52:51;72368.41;;;-148.52;72.84
3254;BME280;1639;42.804;23.342;2023-09-18T06:55:16;72351.88;;;-148.52;72.04
3254;BME280;1639;42.804;23.342;2023-09-18T06:57:42;72337.41;;;-148.52;72.00
3254;BME280;1639;42.804;23.342;2023-09-18T07:00:08;72343.59;;;-148.52;71.49
3254;BME280;1639;42.804;23.342;2023-09-18T07:02:33;72318.78;;;-148.52;71.44
3254;BME280;1639;42.804;23.342;2023-09-18T07:04:59;72287.75;;;-148.52;70.07
3254;BME280;1639;42.804;23.342;2023-09-18T07:07:24;72277.44;;;-148.52;68.06
3254;BME280;1639;42.804;23.342;2023-09-18T07:09:51;72262.94;;;-148.52;68.79
3254;BME280;1639;42.804;23.342;2023-09-18T07:12:17;72252.63;;;-148.52;67.10
3254;BME280;1639;42.804;23.342;2023-09-18T07:14:48;72248.47;;;-148.52;67.19
3254;BME280;1639;42.804;23.342;2023-09-18T07:17:13;72231.94;;;-148.52;67.65
3254;BME280;1639;42.804;23.342;2023-09-18T07:19:39;72203.00;;;-148.52;66.08
3254;BME280;1639;42.804;23.342;2023-09-18T07:22:04;72194.72;;;-148.52;64.89
3254;BME280;1639;42.804;23.342;2023-09-18T07:24:30;72198.84;;;-148.52;63.61
3254;BME280;1639;42.804;23.342;2023-09-18T07:26:55;72182.31;;;-148.52;63.47
3254;BME280;1639;42.804;23.342;2023-09-18T07:29:23;72176.09;;;-148.52;63.17
3254;BME280;1639;42.804;23.342;2023-09-18T07:31:50;72196.78;;;-148.52;62.80
3254;BME280;1639;42.804;23.342;2023-09-18T07:34:16;72169.91;;;-148.52;62.40
3254;BME280;1639;42.804;23.342;2023-09-18T07:36:44;72184.38;;;-148.52;61.78
3254;BME280;1639;42.804;23.342;2023-09-18T07:39:10;72167.84;;;-148.52;61.49
3254;BME280;1639;42.804;23.342;2023-09-18T07:41:37;72176.09;;;-148.52;61.27
3254;BME280;1639;42.804;23.342;2023-09-18T07:44:02;72161.63;;;-148.52;61.18
3254;BME280;1639;42.804;23.342;2023-09-18T07:46:27;72132.69;;;-148.52;61.77
3254;BME280;1639;42.804;23.342;2023-09-18T07:48:53;72120.28;;;-148.52;58.62
3254;BME280;1639;42.804;23.342;2023-09-18T07:51:19;72095.47;;;-148.52;60.87
3254;BME280;1639;42.804;23.342;2023-09-18T07:53:44;72083.06;;;-148.52;58.24
3254;BME280;1639;42.804;23.342;2023-09-18T07:56:10;72056.16;;;-148.52;58.71
3254;BME280;1639;42.804;23.342;2023-09-18T07:58:35;72031.38;;;-148.52;57.49
3254;BME280;1639;42.804;23.342;2023-09-18T08:01:04;72010.69;;;-148.52;56.29
3254;BME280;1639;42.804;23.342;2023-09-18T08:03:31;72012.75;;;-148.52;56.25
3254;BME280;1639;42.804;23.342;2023-09-18T08:05:56;72012.75;;;-148.52;57.68
3254;BME280;1639;42.804;23.342;2023-09-18T08:08:23;72004.47;;;-148.52;56.22
3254;BME280;1639;42.804;23.342;2023-09-18T08:10:51;71994.13;;;-148.52;56.19
3254;BME280;1639;42.804;23.342;2023-09-18T08:13:17;71994.13;;;-148.52;56.66
3254;BME280;1639;42.804;23.342;2023-09-18T08:15:43;71992.06;;;-148.52;56.54
3254;BME280;1639;42.804;23.342;2023-09-18T08:18:09;71965.19;;;-148.52;55.97
3254;BME280;1639;42.804;23.342;2023-09-18T08:20:36;71967.25;;;-148.52;55.30
3254;BME280;1639;42.804;23.342;2023-09-18T08:23:03;71967.25;;;-148.52;56.02
3254;BME280;1639;42.804;23.342;2023-09-18T08:25:30;71948.66;;;-148.52;56.01
3254;BME280;1639;42.804;23.342;2023-09-18T08:27:56;72004.47;;;-148.52;55.61
3254;BME280;1639;42.804;23.342;2023-09-18T08:30:21;71985.88;;;-148.52;56.45
3254;BME280;1639;42.804;23.342;2023-09-18T08:32:47;71942.44;;;-148.52;56.00
3254;BME280;1639;42.804;23.342;2023-09-18T08:35:13;71948.66;;;-148.52;55.04
3254;BME280;1639;42.804;23.342;2023-09-18T08:37:40;71930.03;;;-148.52;54.94
3254;BME280;1639;42.804;23.342;2023-09-18T08:40:07;71892.81;;;-148.52;55.54
3254;BME280;1639;42.804;23.342;2023-09-18T08:42:36;71834.94;;;-148.52;54.50
3254;BME280;1639;42.804;23.342;2023-09-18T08:45:07;71795.66;;;-148.52;53.76
3254;BME280;1639;42.804;23.342;2023-09-18T08:47:34;71785.31;;;-148.52;51.39
3254;BME280;1639;42.804;23.342;2023-09-18T08:50:00;71772.91;;;-148.52;52.75
3254;BME280;1639;42.804;23.342;2023-09-18T08:52:27;71797.72;;;-148.52;51.79
3254;BME280;1639;42.804;23.342;2023-09-18T08:54:53;71810.13;;;-148.52;52.63
3254;BME280;1639;42.804;23.342;2023-09-18T08:57:20;71770.84;;;-148.52;53.18
3254;BME280;1639;42.804;23.342;2023-09-18T08:59:48;71735.69;;;-148.52;50.90
3254;BME280;1639;42.804;23.342;2023-09-18T09:02:15;71712.94;;;-148.52;52.39
3254;BME280;1639;42.804;23.342;2023-09-18T09:04:41;71681.94;;;-148.52;50.99
3254;BME280;1639;42.804;23.342;2023-09-18T09:07:06;71690.19;;;-148.52;50.68
3254;BME280;1639;42.804;23.342;2023-09-18T09:09:32;71694.34;;;-148.52;50.01
3254;BME280;1639;42.804;23.342;2023-09-18T09:11:57;71690.19;;;-148.52;50.24
3254;BME280;1639;42.804;23.342;2023-09-18T09:14:22;71706.75;;;-148.52;50.30
3254;BME280;1639;42.804;23.342;2023-09-18T09:16:54;71669.53;;;-148.52;50.55
3254;BME280;1639;42.804;23.342;2023-09-18T09:19:31;71644.72;;;-148.52;49.56
3254;BME280;1639;42.804;23.342;2023-09-18T09:21:56;71655.06;;;-148.52;49.76
3254;BME280;1639;42.804;23.342;2023-09-18T09:24:36;71648.84;;;-148.52;49.33
3254;BME280;1639;42.804;23.342;2023-09-18T09:27:02;71619.91;;;-148.52;48.80
3254;BME280;1639;42.804;23.342;2023-09-18T09:29:28;71634.38;;;-148.52;47.95
3254;BME280;1639;42.804;23.342;2023-09-18T09:31:55;71644.72;;;-148.52;48.31
3254;BME280;1639;42.804;23.342;2023-09-18T09:34:25;71621.97;;;-148.52;48.74
3254;BME280;1639;42.804;23.342;2023-09-18T09:36:55;71642.66;;;-148.52;47.57
3254;BME280;1639;42.804;23.342;2023-09-18T09:39:21;71634.38;;;-148.52;48.50
3254;BME280;1639;42.804;23.342;2023-09-18T09:41:51;71611.63;;;-148.52;48.25
3254;BME280;1639;42.804;23.342;2023-09-18T09:44:16;71642.66;;;-148.52;47.94
3254;BME280;1639;42.804;23.342;2023-09-18T09:46:48;71617.84;;;-148.52;46.96
3254;BME280;1639;42.804;23.342;2023-09-18T09:49:14;71638.50;;;-148.52;48.10
3254;BME280;1639;42.804;23.342;2023-09-18T09:51:42;71586.81;;;-148.52;47.44
3254;BME280;1639;42.804;23.342;2023-09-18T09:54:09;71566.16;;;-148.52;46.19
3254;BME280;1639;42.804;23.342;2023-09-18T09:56:47;71553.75;;;-148.52;46.43
3254;BME280;1639;42.804;23.342;2023-09-18T09:59:14;71539.28;;;-148.52;47.35
3254;BME280;1639;42.804;23.342;2023-09-18T10:01:40;71528.94;;;-148.52;46.11
3254;BME280;1639;42.804;23.342;2023-09-18T10:04:14;71634.38;;;-148.52;46.36
3254;BME280;1639;42.804;23.342;2023-09-18T10:06:45;71580.63;;;-148.52;46.87
3254;BME280;1639;42.804;23.342;2023-09-18T10:09:12;71564.09;;;-148.52;46.62
3254;BME280;1639;42.804;23.342;2023-09-18T10:11:41;71553.75;;;-148.52;46.17
3254;BME280;1639;42.804;23.342;2023-09-18T10:14:14;71524.81;;;-148.52;47.27
3254;BME280;1639;42.804;23.342;2023-09-18T10:16:45;71516.53;;;-148.52;44.85
3254;BME280;1639;42.804;23.342;2023-09-18T10:24:34;71495.84;;;-148.52;44.79
3254;BME280;1639;42.804;23.342;2023-09-18T10:27:03;71500.00;;;-148.52;44.48
3254;BME280;1639;42.804;23.342;2023-09-18T10:29:31;71487.59;;;-148.52;44.66
3254;BME280;1639;42.804;23.342;2023-09-18T10:31:58;71493.78;;;-148.52;45.20
3254;BME280;1639;42.804;23.342;2023-09-18T10:34:24;71464.84;;;-148.52;44.93
3254;BME280;1639;42.804;23.342;2023-09-18T10:36:51;71497.94;;;-148.52;44.37
3254;BME280;1639;42.804;23.342;2023-09-18T10:39:17;71471.06;;;-148.52;45.07
3254;BME280;1639;42.804;23.342;2023-09-18T10:41:53;71516.53;;;-148.52;44.51
3254;BME280;1639;42.804;23.342;2023-09-18T10:44:19;71477.25;;;-148.52;45.81
3254;BME280;1639;42.804;23.342;2023-09-18T10:46:47;71475.19;;;-148.52;44.88
3254;BME280;1639;42.804;23.342;2023-09-18T10:49:15;71471.06;;;-148.52;44.40
3254;BME280;1639;42.804;23.342;2023-09-18T10:51:40;71458.66;;;-148.52;44.32
3254;BME280;1639;42.804;23.342;2023-09-18T10:54:11;71479.31;;;-148.52;43.95
3254;BME280;1639;42.804;23.342;2023-09-18T10:56:41;71502.06;;;-148.52;44.71
3254;BME280;1639;42.804;23.342;2023-09-18T10:59:07;71487.59;;;-148.52;43.87
3254;BME280;1639;42.804;23.342;2023-09-18T11:01:35;71483.44;;;-148.52;43.56
3254;BME280;1639;42.804;23.342;2023-09-18T11:04:03;71493.78;;;-148.52;44.38
3254;BME280;1639;42.804;23.342;2023-09-18T11:06:29;71549.63;;;-148.52;46.57
3254;BME280;1639;42.804;23.342;2023-09-18T11:09:05;71500.00;;;-148.52;44.56
3254;BME280;1639;42.804;23.342;2023-09-18T11:11:32;71458.66;;;-148.52;43.84
3254;BME280;1639;42.804;23.342;2023-09-18T11:14:00;71454.50;;;-148.52;43.67
3254;BME280;1639;42.804;23.342;2023-09-18T11:18:53;71458.66;;;-148.52;44.97
3254;BME280;1639;42.804;23.342;2023-09-18T11:21:29;71450.38;;;-148.52;43.43
3254;BME280;1639;42.804;23.342;2023-09-18T11:24:03;71442.09;;;-148.52;44.79
3254;BME280;1639;42.804;23.342;2023-09-18T11:26:31;71437.97;;;-148.52;42.82
3254;BME280;1639;42.804;23.342;2023-09-18T11:29:14;71398.69;;;-148.52;43.98
3254;BME280;1639;42.804;23.342;2023-09-18T11:31:54;71429.69;;;-148.52;42.16
3254;BME280;1639;42.804;23.342;2023-09-18T11:34:21;71429.69;;;-148.52;42.61
3254;BME280;1639;42.804;23.342;2023-09-18T11:36:47;71425.56;;;-148.52;42.13
3254;BME280;1639;42.804;23.342;2023-09-18T11:39:13;71437.97;;;-148.52;44.04
3254;BME280;1639;42.804;23.342;2023-09-18T11:41:39;71415.22;;;-148.52;43.16
3254;BME280;1639;42.804;23.342;2023-09-18T11:46:46;71409.03;;;-148.52;42.95
3254;BME280;1639;42.804;23.342;2023-09-18T11:49:22;71406.97;;;-148.52;42.97
3254;BME280;1639;42.804;23.342;2023-09-18T11:51:50;71400.75;;;-148.52;42.51
3254;BME280;1639;42.804;23.342;2023-09-18T11:54:16;71411.09;;;-148.52;41.53
3254;BME280;1639;42.804;23.342;2023-09-18T11:56:42;71382.16;;;-148.52;42.20
3254;BME280;1639;42.804;23.342;2023-09-18T11:59:08;71411.09;;;-148.52;42.01
3254;BME280;1639;42.804;23.342;2023-09-18T12:01:35;71431.78;;;-148.52;42.88
3254;BME280;1639;42.804;23.342;2023-09-18T12:04:05;71454.50;;;-148.52;43.31
3254;BME280;1639;42.804;23.342;2023-09-18T12:06:39;71485.53;;;-148.52;43.69
3254;BME280;1639;42.804;23.342;2023-09-18T12:09:05;71454.50;;;-148.52;45.94
3254;BME280;1639;42.804;23.342;2023-09-18T12:11:32;71440.03;;;-148.52;42.65
3254;BME280;1639;42.804;23.342;2023-09-18T12:13:59;71435.91;;;-148.52;43.11
3254;BME280;1639;42.804;23.342;2023-09-18T12:16:25;71437.97;;;-148.52;42.70
3254;BME280;1639;42.804;23.342;2023-09-18T12:18:51;71400.75;;;-148.52;43.21
3254;BME280;1639;42.804;23.342;2023-09-18T12:21:17;71394.56;;;-148.52;43.43
3254;BME280;1639;42.804;23.342;2023-09-18T12:23:44;71388.34;;;-148.52;43.59
3254;BME280;1639;42.804;23.342;2023-09-18T12:26:14;71413.16;;;-148.52;45.02
3254;BME280;1639;42.804;23.342;2023-09-18T12:28:42;71446.25;;;-148.52;46.24
3254;BME280;1639;42.804;23.342;2023-09-18T12:31:11;71456.56;;;-148.52;46.70
3254;BME280;1639;42.804;23.342;2023-09-18T12:33:38;71512.41;;;-148.52;46.98
3254;BME280;1639;42.804;23.342;2023-09-18T12:36:05;71547.53;;;-148.52;46.96
3254;BME280;1639;42.804;23.342;2023-09-18T12:38:32;71572.34;;;-148.52;47.87
3254;BME280;1639;42.804;23.342;2023-09-18T12:40:58;71611.63;;;-148.52;48.30
3254;BME280;1639;42.804;23.342;2023-09-18T12:43:39;71609.56;;;-148.52;49.00
3254;BME280;1639;42.804;23.342;2023-09-18T12:46:08;71601.31;;;-148.52;48.78
3254;BME280;1639;42.804;23.342;2023-09-18T12:48:40;71634.38;;;-148.52;48.37
3254;BME280;1639;42.804;23.342;2023-09-18T12:51:10;71646.78;;;-148.52;48.41
3254;BME280;1639;42.804;23.342;2023-09-18T12:53:36;71624.03;;;-148.52;47.84
3254;BME280;1639;42.804;23.342;2023-09-18T12:56:10;71605.44;;;-148.52;47.33